Time;durP1;ratioP1;P1;durP2;ratioP2;P2;SDS_P1;SDS_P2;PMS_P1;PMS_P2;Temp;Humidity;BMP_temperature;BMP_pressure;BME280_temperature;BME280_humidity;BME280_pressure;Samples;Min_cycle;Max_cycle;Signal;HPM_P1;HPM_P2
2022/06/14 00:03:13;;;;;;;5.42;4.62;;;;;;;13.01;90.05;96823.77;1636108;87;21404;-85
2022/06/14 00:06:01;;;;;;;9.40;5.40;;;;;;;13.03;89.96;96823.11;1635828;83;21126;-83
2022/06/14 00:08:46;;;;;;;6.58;5.05;;;;;;;13.04;90.00;96820.00;1690153;83;21017;-83
2022/06/14 00:11:16;;;;;;;6.17;4.33;;;;;;;13.02;90.16;96825.91;1686501;83;21352;-83
2022/06/14 00:13:42;;;;;;;4.92;4.33;;;;;;;13.02;90.45;96824.60;1686607;83;21494;-83
2022/06/14 00:16:08;;;;;;;6.65;4.30;;;;;;;12.98;89.95;96827.25;1685814;83;20978;-83
2022/06/14 00:18:34;;;;;;;5.83;3.90;;;;;;;12.95;90.04;96829.73;1662114;85;20980;-83
2022/06/14 00:21:00;;;;;;;6.50;3.87;;;;;;;12.93;90.06;96826.51;1693558;83;21361;-83
2022/06/14 00:23:25;;;;;;;7.33;4.45;;;;;;;12.93;89.91;96834.33;1693208;83;20963;-83
2022/06/14 00:25:54;;;;;;;6.50;4.30;;;;;;;12.93;89.63;96837.75;1686915;83;20955;-83
2022/06/14 00:28:20;;;;;;;7.90;4.90;;;;;;;12.87;88.80;96834.59;1687882;83;20955;-83
2022/06/14 00:30:49;;;;;;;6.87;4.97;;;;;;;12.85;89.15;96835.27;1693850;83;20986;-83
2022/06/14 00:33:14;;;;;;;7.37;4.53;;;;;;;12.83;88.92;96837.72;1683134;83;20973;-83
2022/06/14 00:35:40;;;;;;;5.83;4.30;;;;;;;12.83;89.10;96832.02;1686936;83;21312;-83
2022/06/14 00:38:06;;;;;;;7.08;4.05;;;;;;;12.81;89.21;96834.50;1682866;83;21080;-83
2022/06/14 00:40:34;;;;;;;6.60;4.72;;;;;;;12.80;89.22;96835.48;1665704;83;21011;-83
2022/06/14 00:43:05;;;;;;;6.75;4.40;;;;;;;12.80;89.50;96838.91;1666732;85;20982;-83
2022/06/14 00:45:37;;;;;;;6.22;4.17;;;;;;;12.78;89.73;96840.89;1681064;83;20974;-83
2022/06/14 00:48:25;;;;;;;7.47;4.83;;;;;;;12.76;90.01;96840.27;1685103;83;20989;-83
2022/06/14 00:51:09;;;;;;;5.75;3.87;;;;;;;12.77;90.13;96845.80;1672042;85;20957;-83
2022/06/14 00:53:58;;;;;;;5.85;3.42;;;;;;;12.74;90.25;96843.56;1686329;83;21416;-83
2022/06/14 00:56:56;;;;;;;9.43;3.83;;;;;;;12.74;90.25;96840.95;1675884;83;21078;-83
2022/06/14 00:59:33;;;;;;;8.65;4.47;;;;;;;12.74;89.28;96842.76;1666636;84;21656;-83
2022/06/14 01:02:12;;;;;;;5.00;4.10;;;;;;;12.74;89.42;96837.54;1688858;83;20974;-83
2022/06/14 01:04:38;;;;;;;5.95;3.70;;;;;;;12.69;88.83;96848.53;1688849;83;20962;-83
2022/06/14 01:07:29;;;;;;;6.92;3.67;;;;;;;12.65;88.62;96851.17;1686880;83;21436;-83
2022/06/14 01:10:04;;;;;;;5.60;3.42;;;;;;;12.66;88.68;96848.88;1683697;84;20999;-83
2022/06/14 01:12:33;;;;;;;7.75;4.33;;;;;;;12.69;88.99;96847.69;1678390;83;21019;-83
2022/06/14 01:15:25;;;;;;;4.97;3.40;;;;;;;12.70;88.65;96849.34;1673715;84;21005;-83
2022/06/14 01:17:54;;;;;;;7.70;4.10;;;;;;;12.71;89.43;96851.76;1680876;85;21438;-82
2022/06/14 01:20:20;;;;;;;4.50;3.58;;;;;;;12.69;89.28;96844.63;1683324;83;20991;-82
2022/06/14 01:22:47;;;;;;;5.15;3.27;;;;;;;12.70;89.66;96846.73;1687266;83;21031;-82
2022/06/14 01:25:13;;;;;;;7.42;3.47;;;;;;;12.71;89.75;96849.16;1667827;83;20986;-82
2022/06/14 01:27:40;;;;;;;7.90;3.50;;;;;;;12.70;89.59;96855.36;1672161;84;20963;-82
2022/06/14 01:30:24;;;;;;;6.67;4.08;;;;;;;12.71;89.34;96858.28;1682351;83;21089;-82
2022/06/14 01:32:56;;;;;;;7.25;3.55;;;;;;;12.71;88.27;96855.67;1682945;83;21356;-82
2022/06/14 01:35:25;;;;;;;8.70;3.87;;;;;;;12.69;88.15;96862.87;1700087;83;21029;-82
2022/06/14 01:37:53;;;;;;;5.80;3.35;;;;;;;12.69;88.50;96872.45;1685300;83;21003;-82
2022/06/14 01:40:24;;;;;;;7.17;3.60;;;;;;;12.65;87.99;96868.61;1637292;85;21055;-82
2022/06/14 01:43:13;;;;;;;4.83;3.02;;;;;;;12.62;87.79;96872.39;1654345;85;21446;-82
2022/06/14 01:45:54;;;;;;;4.70;3.30;;;;;;;12.62;87.79;96865.38;1657280;85;21374;-82
2022/06/14 01:48:49;;;;;;;5.58;4.10;;;;;;;12.60;87.69;96860.05;1658307;85;20971;-82
2022/06/14 01:54:49;;;;;;;4.53;3.75;;;;;;;12.52;88.14;96871.36;1634429;85;21758;-82
2022/06/14 01:57:37;;;;;;;6.70;3.30;;;;;;;12.50;88.87;96870.73;1667298;83;21015;-82
2022/06/14 02:00:17;;;;;;;7.67;3.20;;;;;;;12.47;88.70;96877.63;1680154;83;20954;-82
2022/06/14 02:05:55;;;;;;;6.80;3.67;;;;;;;12.44;89.05;96871.48;1671039;84;21058;-82
2022/06/14 02:08:24;;;;;;;7.40;3.20;;;;;;;12.45;89.12;96880.09;1662744;84;21004;-82
2022/06/14 02:11:08;;;;;;;6.28;3.62;;;;;;;12.45;89.29;96887.92;1668894;84;21043;-82
2022/06/14 02:13:45;;;;;;;5.90;4.47;;;;;;;12.40;88.61;96887.66;1659136;84;21077;-82
2022/06/14 02:16:28;;;;;;;4.62;3.80;;;;;;;12.40;88.86;96894.17;1683218;84;21066;-82
2022/06/14 02:19:08;;;;;;;6.58;3.65;;;;;;;12.42;88.94;96898.22;1666624;84;21052;-82
2022/06/14 02:21:47;;;;;;;9.38;4.00;;;;;;;12.43;88.55;96904.23;1640214;84;20979;-82
2022/06/14 02:24:30;;;;;;;6.12;3.40;;;;;;;12.43;89.18;96902.44;1629310;86;20977;-82
2022/06/14 02:27:19;;;;;;;7.97;3.30;;;;;;;12.45;89.11;96903.55;1662026;84;21012;-82
2022/06/14 02:29:53;;;;;;;7.53;3.42;;;;;;;12.46;89.19;96909.08;1665715;85;20995;-82
2022/06/14 02:32:27;;;;;;;6.65;4.45;;;;;;;12.47;89.46;96908.90;1659581;85;20952;-82
2022/06/14 02:35:01;;;;;;;7.35;4.15;;;;;;;12.46;89.66;96914.30;1693954;83;21280;-82
2022/06/14 02:37:49;;;;;;;10.98;3.50;;;;;;;12.45;89.78;96913.48;1644960;85;21062;-82
2022/06/14 02:40:28;;;;;;;5.78;3.58;;;;;;;12.47;89.69;96914.11;1687139;83;21133;-82
2022/06/14 02:43:33;;;;;;;4.97;3.10;;;;;;;12.46;89.76;96913.80;1663249;84;20969;-82
2022/06/14 02:46:06;;;;;;;6.50;3.00;;;;;;;12.44;89.64;96916.27;1660606;84;20967;-82
2022/06/14 02:48:49;;;;;;;6.65;3.02;;;;;;;12.43;89.51;96918.08;1678225;84;20981;-82
2022/06/14 02:51:39;;;;;;;7.40;3.27;;;;;;;12.43;89.58;96923.28;1657902;85;20968;-82
2022/06/14 02:54:16;;;;;;;8.05;3.40;;;;;;;12.45;89.52;96936.94;1655479;84;21084;-82
2022/06/14 02:57:15;;;;;;;12.85;3.80;;;;;;;12.45;89.45;96931.73;1633383;86;21029;-82
2022/06/14 03:00:08;;;;;;;6.55;3.67;;;;;;;12.45;89.35;96936.14;1677436;84;21075;-82
2022/06/14 03:03:12;;;;;;;6.58;3.62;;;;;;;12.41;89.44;96940.91;1660538;84;21075;-82
2022/06/14 03:06:05;;;;;;;5.17;3.05;;;;;;;12.39;89.41;96944.69;1668772;84;21122;-82
2022/06/14 03:09:01;;;;;;;5.92;2.85;;;;;;;12.36;89.50;96948.42;1632896;86;21113;-83
2022/06/14 03:12:06;;;;;;;4.65;2.83;;;;;;;12.32;89.27;96950.59;1648991;86;21017;-81
2022/06/14 03:15:26;;;;;;;4.20;3.27;;;;;;;12.29;89.19;96949.65;1636371;86;21024;-83
2022/06/14 03:18:43;;;;;;;4.92;3.08;;;;;;;12.27;88.98;96956.03;1651576;85;21381;-82
2022/06/14 03:21:34;;;;;;;5.47;3.60;;;;;;;12.22;89.24;96957.06;1654185;85;21004;-82
2022/06/14 03:24:10;;;;;;;8.43;3.37;;;;;;;12.22;89.44;96966.19;1607790;87;20976;-83
2022/06/14 03:27:02;;;;;;;5.75;3.05;;;;;;;12.21;88.78;96970.59;1634779;86;21353;-82
2022/06/14 03:29:41;;;;;;;7.37;3.22;;;;;;;12.23;88.87;96963.40;1642451;85;21056;-83
2022/06/14 03:32:18;;;;;;;5.45;3.60;;;;;;;12.23;88.55;96967.31;1673964;85;21031;-83
2022/06/14 03:34:52;;;;;;;4.53;2.83;;;;;;;12.25;88.74;96961.92;1642798;85;20989;-84
2022/06/14 03:37:18;;;;;;;6.37;3.22;;;;;;;12.26;88.98;96961.73;1636788;86;21462;-84
2022/06/14 03:39:54;;;;;;;6.22;3.20;;;;;;;12.26;89.04;96970.05;1643761;86;21114;-84
2022/06/14 03:42:20;;;;;;;7.92;3.10;;;;;;;12.27;89.16;96960.75;1640290;86;20952;-84
2022/06/14 03:44:46;;;;;;;7.83;3.47;;;;;;;12.29;89.27;96963.17;1641282;86;20974;-82
2022/06/14 03:47:22;;;;;;;8.28;3.10;;;;;;;12.30;89.48;96964.30;1640590;86;21395;-82
2022/06/14 03:50:02;;;;;;;5.53;2.70;;;;;;;12.29;89.12;96975.70;1644870;86;21008;-82
2022/06/14 03:52:51;;;;;;;4.95;2.50;;;;;;;12.31;89.26;96982.04;1648986;86;21382;-82
2022/06/14 03:55:42;;;;;;;4.22;2.72;;;;;;;12.32;89.24;96983.66;1654490;85;21264;-82
2022/06/14 03:58:34;;;;;;;3.90;2.55;;;;;;;12.37;89.29;96981.84;1627405;86;21000;-82
2022/06/14 04:01:17;;;;;;;4.75;3.15;;;;;;;12.39;89.14;96987.69;1637227;86;20951;-83
2022/06/14 04:04:21;;;;;;;5.62;3.05;;;;;;;12.44;89.34;96983.55;1632960;86;21358;-82
2022/06/14 04:06:53;;;;;;;7.40;3.50;;;;;;;12.46;88.52;96986.78;1639272;86;21505;-82
2022/06/14 04:09:29;;;;;;;8.13;4.30;;;;;;;12.46;86.99;96981.56;1677920;84;20954;-82
2022/06/14 04:12:23;;;;;;;6.83;3.80;;;;;;;12.46;86.99;96981.56;1666731;84;21019;-82
2022/06/14 04:15:07;;;;;;;9.05;5.28;;;;;;;12.49;87.24;96977.29;1668890;84;21070;-82
2022/06/14 04:17:59;;;;;;;7.03;4.12;;;;;;;12.52;86.94;96987.35;1659262;84;21039;-83
2022/06/14 04:20:38;;;;;;;6.35;4.08;;;;;;;12.57;86.73;96988.95;1666772;84;21027;-82
2022/06/14 04:23:28;;;;;;;6.25;3.65;;;;;;;12.67;87.43;96993.08;1668622;84;21398;-83
2022/06/14 04:25:58;;;;;;;5.83;3.62;;;;;;;12.71;86.86;96999.57;1648957;85;21397;-82
2022/06/14 04:28:54;;;;;;;6.70;3.10;;;;;;;12.80;87.55;97001.89;1666353;84;20975;-82
2022/06/14 04:31:33;;;;;;;6.33;3.42;;;;;;;12.84;86.35;97001.03;1666283;84;20979;-82
2022/06/14 04:34:29;;;;;;;6.78;3.58;;;;;;;12.82;86.65;97003.81;1661669;84;21110;-82
2022/06/14 04:37:03;;;;;;;14.10;4.08;;;;;;;12.79;85.02;97007.29;1645277;85;21075;-83
2022/06/14 04:39:45;;;;;;;5.35;3.60;;;;;;;12.73;84.12;97011.44;1664315;84;21350;-82
2022/06/14 04:42:28;;;;;;;5.37;3.52;;;;;;;12.72;84.23;97009.81;1660404;84;20952;-82
2022/06/14 04:45:10;;;;;;;5.95;3.20;;;;;;;12.75;85.49;97013.86;1679058;84;21008;-82
2022/06/14 04:47:53;;;;;;;7.53;3.20;;;;;;;12.79;85.46;97013.31;1676329;84;20994;-82
2022/06/14 04:50:24;;;;;;;4.95;3.33;;;;;;;12.82;84.56;97018.66;1664695;84;20987;-82
2022/06/14 04:52:56;;;;;;;6.87;3.77;;;;;;;12.85;84.63;97018.30;1666231;84;21039;-82
2022/06/14 04:55:47;;;;;;;6.53;3.65;;;;;;;12.87;84.85;97015.84;1666873;85;20968;-82
2022/06/14 04:58:19;;;;;;;5.45;3.87;;;;;;;12.84;83.85;97020.09;1666600;84;20998;-82
2022/06/14 05:00:57;;;;;;;5.87;3.60;;;;;;;12.83;84.28;97017.17;1684402;84;21376;-83
2022/06/14 05:03:39;;;;;;;6.28;3.25;;;;;;;12.82;83.48;97022.57;1666285;84;21485;-83
2022/06/14 05:06:12;;;;;;;5.92;2.98;;;;;;;12.83;84.28;97020.27;1665484;84;21448;-84
2022/06/14 05:08:43;;;;;;;5.95;3.30;;;;;;;12.88;83.95;97015.34;1666533;85;21070;-83
2022/06/14 05:11:17;;;;;;;7.30;3.47;;;;;;;12.87;83.20;97011.94;1670224;84;21039;-82
2022/06/14 05:14:03;;;;;;;7.25;3.87;;;;;;;12.87;82.85;97017.64;1672029;84;21043;-83
2022/06/14 05:16:37;;;;;;;8.10;3.75;;;;;;;12.89;83.41;97014.36;1677895;84;21023;-82
2022/06/14 05:19:21;;;;;;;5.12;3.55;;;;;;;12.88;83.39;97014.05;1662448;84;21341;-82
2022/06/14 05:22:11;;;;;;;6.85;4.20;;;;;;;12.95;83.69;97006.30;1664095;84;21070;-82
2022/06/14 05:24:37;;;;;;;6.95;3.30;;;;;;;13.03;83.72;97014.04;1672843;84;21088;-82
2022/06/14 05:27:32;;;;;;;5.97;3.25;;;;;;;13.10;83.12;97013.13;1663575;84;21039;-82
2022/06/14 05:30:12;;;;;;;6.78;3.30;;;;;;;13.17;83.41;97025.73;1661979;84;20979;-82
2022/06/14 05:32:58;;;;;;;7.83;3.52;;;;;;;13.24;83.07;97021.95;1669178;84;21427;-82
2022/06/14 05:35:42;;;;;;;5.55;3.00;;;;;;;13.30;83.24;97021.70;1669849;84;21087;-82
2022/06/14 05:38:32;;;;;;;6.17;3.55;;;;;;;13.33;82.83;97026.56;1667945;85;21041;-82
2022/06/14 05:41:19;;;;;;;5.95;3.17;;;;;;;13.35;82.04;97021.49;1672087;84;20951;-82
2022/06/14 05:43:55;;;;;;;7.47;4.60;;;;;;;13.41;81.24;97025.97;1676456;84;21330;-82
2022/06/14 05:46:25;;;;;;;8.78;3.50;;;;;;;13.42;81.36;97024.16;1695418;83;21046;-82
2022/06/14 05:48:54;;;;;;;5.25;2.83;;;;;;;13.44;80.64;97026.09;1702219;82;21339;-83
2022/06/14 05:51:26;;;;;;;9.20;3.05;;;;;;;13.44;80.60;97026.90;1679680;83;20977;-83
2022/06/14 05:54:09;;;;;;;4.92;3.67;;;;;;;13.41;81.21;97028.58;1680466;83;21459;-82
2022/06/14 05:56:43;;;;;;;5.78;3.15;;;;;;;13.37;80.62;97026.03;1695228;83;20995;-82
2022/06/14 05:59:36;;;;;;;6.53;3.90;;;;;;;13.33;79.84;97026.06;1691027;83;20998;-82
2022/06/14 06:02:28;;;;;;;;;;;;;;;13.35;80.37;97022.80;1697863;83;21011;-82
2022/06/14 06:05:14;;;;;;;8.65;4.47;;;;;;;13.38;79.34;97029.45;1661182;85;20192;-81
2022/06/14 06:07:46;;;;;;;7.33;3.05;;;;;;;13.34;79.36;97028.17;1663181;84;21107;-82
2022/06/14 06:10:17;;;;;;;9.25;4.85;;;;;;;13.32;79.39;97028.86;1664032;85;21069;-82
2022/06/14 06:12:51;;;;;;;4.50;2.80;;;;;;;13.33;79.66;97029.16;1670682;83;21084;-82
2022/06/14 06:15:25;;;;;;;5.42;3.00;;;;;;;13.26;77.34;97024.38;1658850;83;20967;-83
2022/06/14 06:17:59;;;;;;;8.30;3.33;;;;;;;13.26;79.31;97026.48;1668583;84;21010;-82
2022/06/14 06:20:53;;;;;;;5.53;3.05;;;;;;;13.21;77.70;97030.16;1664075;83;20945;-83
2022/06/14 06:23:24;;;;;;;5.28;3.02;;;;;;;13.23;78.54;97028.66;1650576;85;21043;-82
2022/06/14 06:25:56;;;;;;;4.42;2.10;;;;;;;13.25;77.52;97027.98;1660769;85;21071;-83
2022/06/14 06:28:31;;;;;;;;;;;;;;;13.24;77.98;97030.28;1681934;84;20948;-82
2022/06/14 06:31:19;;;;;;;6.22;2.62;;;;;;;13.25;77.30;97036.62;1662884;84;20347;-82
2022/06/14 06:33:48;;;;;;;4.60;2.35;;;;;;;13.27;77.83;97037.24;1683809;84;21237;-82
2022/06/14 06:36:56;;;;;;;5.42;2.65;;;;;;;13.29;77.11;97037.05;1676818;84;21030;-81
2022/06/14 06:39:47;;;;;;;4.47;2.22;;;;;;;13.29;76.29;97039.66;1663498;85;20988;-82
2022/06/14 06:42:33;;;;;;;4.72;2.70;;;;;;;13.30;76.54;97039.98;1673056;84;21008;-82
2022/06/14 06:45:19;;;;;;;2.98;2.12;;;;;;;13.40;77.90;97040.52;1662652;84;21340;-82
2022/06/14 06:48:12;;;;;;;4.33;2.77;;;;;;;13.46;77.00;97043.69;1658455;84;20956;-82
2022/06/14 06:50:47;;;;;;;4.12;2.00;;;;;;;13.46;76.74;97044.48;1661388;84;21001;-82
2022/06/14 06:53:20;;;;;;;6.22;2.80;;;;;;;13.53;77.42;97036.75;1686171;83;21431;-82
2022/06/14 06:56:16;;;;;;;4.53;2.55;;;;;;;13.64;76.76;97049.80;1706113;83;21067;-82
2022/06/14 06:59:05;;;;;;;6.10;2.50;;;;;;;13.74;76.21;97045.91;1618930;87;20983;-82
2022/06/14 07:01:40;;;;;;;5.60;2.05;;;;;;;13.80;76.56;97046.47;1628145;86;20980;-82
2022/06/14 07:07:20;;;;;;;4.08;2.12;;;;;;;14.00;74.44;97048.48;1673167;85;21015;-82
2022/06/14 07:09:57;;;;;;;6.05;2.72;;;;;;;14.03;73.93;97052.84;1676271;83;21052;-82
2022/06/14 07:12:46;;;;;;;5.90;2.65;;;;;;;14.08;74.05;97054.38;1675873;83;20976;-82
2022/06/14 07:15:20;;;;;;;4.10;2.05;;;;;;;14.17;74.21;97059.00;1681035;83;20962;-82
2022/06/14 07:17:57;;;;;;;4.25;1.57;;;;;;;14.16;73.25;97062.61;1670335;83;21773;-83
2022/06/14 07:20:48;;;;;;;6.55;1.67;;;;;;;14.20;73.17;97064.34;1666125;84;20991;-82
2022/06/14 07:23:42;;;;;;;3.17;2.22;;;;;;;14.27;72.91;97065.20;1656228;84;21410;-83
2022/06/14 07:26:24;;;;;;;3.37;1.80;;;;;;;14.39;73.01;97063.70;1663286;83;21042;-83
2022/06/14 07:29:29;;;;;;;2.27;1.37;;;;;;;14.51;72.73;97064.03;1688858;83;20959;-83
2022/06/14 07:32:15;;;;;;;2.42;1.45;;;;;;;14.55;72.28;97056.11;1644489;85;21358;-82
2022/06/14 07:34:40;;;;;;;6.00;1.57;;;;;;;14.63;72.26;97054.64;1680564;83;21025;-82
2022/06/14 07:37:36;;;;;;;3.52;1.70;;;;;;;14.67;71.72;97060.64;1683378;84;20989;-82
2022/06/14 07:40:19;;;;;;;4.20;1.17;;;;;;;14.71;73.38;97055.33;1666620;84;21014;-82
2022/06/14 07:42:59;;;;;;;2.17;1.12;;;;;;;14.78;70.53;97055.36;1658455;84;20993;-82
2022/06/14 07:45:31;;;;;;;2.47;1.37;;;;;;;14.89;71.52;97052.72;1684782;84;21485;-82
2022/06/14 07:48:05;;;;;;;2.42;1.37;;;;;;;14.97;71.08;97052.58;1682840;85;21013;-83
2022/06/14 07:50:47;;;;;;;3.45;1.22;;;;;;;14.99;70.12;97063.16;1675581;84;20970;-82
2022/06/14 07:53:23;;;;;;;2.33;1.32;;;;;;;14.94;69.02;97060.79;1666168;84;20955;-82
2022/06/14 07:55:54;;;;;;;3.02;1.77;;;;;;;14.87;69.00;97054.72;1659049;84;21010;-82
2022/06/14 07:58:31;;;;;;;4.30;1.60;;;;;;;14.89;69.83;97061.38;1668944;84;21395;-83
2022/06/14 08:01:09;;;;;;;3.77;1.72;;;;;;;14.98;70.32;97059.42;1693915;83;21091;-83
2022/06/14 08:03:58;;;;;;;3.20;1.80;;;;;;;15.06;69.36;97062.38;1694260;83;20959;-82
2022/06/14 08:06:37;;;;;;;5.03;2.22;;;;;;;15.12;70.18;97060.28;1682088;83;20968;-82
2022/06/14 08:09:11;;;;;;;4.47;1.60;;;;;;;15.04;69.30;97063.88;1680784;83;21017;-82
2022/06/14 08:11:54;;;;;;;2.77;1.67;;;;;;;15.17;69.23;97050.06;1672886;83;20989;-83
2022/06/14 08:14:37;;;;;;;2.65;1.50;;;;;;;15.25;70.45;97056.42;1671731;84;21015;-83
2022/06/14 08:17:03;;;;;;;2.92;1.85;;;;;;;15.21;69.19;97064.38;1684929;83;21361;-83
2022/06/14 08:19:51;;;;;;;3.17;1.77;;;;;;;15.33;68.91;97056.28;1638751;86;20988;-83
2022/06/14 08:22:25;;;;;;;4.10;1.70;;;;;;;15.30;68.68;97054.05;1662141;84;21031;-83
2022/06/14 08:24:55;;;;;;;2.17;1.60;;;;;;;15.52;69.62;97052.92;1666335;84;21078;-83
2022/06/14 08:27:25;;;;;;;3.02;1.80;;;;;;;15.76;68.44;97050.80;1670056;84;21010;-83
2022/06/14 08:30:03;;;;;;;4.53;1.80;;;;;;;15.66;68.21;97042.53;1687306;83;21337;-83
2022/06/14 08:32:38;;;;;;;4.53;1.65;;;;;;;15.64;68.30;97047.16;1687130;85;21161;-83
2022/06/14 08:35:15;;;;;;;2.83;1.67;;;;;;;15.65;69.75;97046.96;1687701;83;21380;-82
2022/06/14 08:37:51;;;;;;;4.37;1.80;;;;;;;15.61;67.02;97047.83;1693591;83;20944;-83
2022/06/14 08:40:38;;;;;;;3.10;1.98;;;;;;;15.63;67.56;97048.17;1679609;83;21338;-83
2022/06/14 08:43:14;;;;;;;2.60;1.75;;;;;;;15.80;67.96;97045.48;1637644;83;21018;-83
2022/06/14 08:45:48;;;;;;;3.87;1.70;;;;;;;15.82;67.73;97044.78;1690910;83;20967;-83
2022/06/14 08:48:40;;;;;;;2.55;1.40;;;;;;;15.88;68.76;97038.23;1641381;86;20989;-83
2022/06/14 08:51:13;;;;;;;3.80;1.37;;;;;;;15.90;66.59;97029.67;1685794;83;21437;-82
2022/06/14 08:54:18;;;;;;;2.60;1.45;;;;;;;15.96;69.79;97014.17;1693492;83;21018;-83
2022/06/14 08:57:05;;;;;;;3.72;1.82;;;;;;;16.23;69.90;97026.27;1716193;82;21027;-83
2022/06/14 09:00:04;;;;;;;2.52;1.70;;;;;;;16.60;69.88;97024.06;1717216;82;20983;-83
2022/06/14 09:03:02;;;;;;;3.40;1.30;;;;;;;16.98;68.89;97023.70;1720186;82;22021;-83
2022/06/14 09:06:03;;;;;;;2.92;1.65;;;;;;;17.05;66.92;97032.86;1732190;82;21024;-83
2022/06/14 09:09:08;;;;;;;2.00;1.50;;;;;;;16.97;66.37;97029.97;1730078;82;20981;-83
2022/06/14 09:12:02;;;;;;;4.45;2.08;;;;;;;16.91;65.75;97026.03;1716430;82;20950;-84
2022/06/14 09:14:59;;;;;;;4.05;2.30;;;;;;;16.91;66.25;97032.59;1677795;84;20995;-84
2022/06/14 09:17:51;;;;;;;3.30;1.45;;;;;;;16.84;66.48;97025.25;1681718;83;20984;-83
2022/06/14 09:20:37;;;;;;;3.58;1.67;;;;;;;16.78;65.94;97032.14;1697258;82;21408;-83
2022/06/14 09:23:29;;;;;;;3.30;1.65;;;;;;;16.69;66.23;97034.66;1716495;82;21050;-83
2022/06/14 09:26:30;;;;;;;3.55;2.00;;;;;;;16.59;64.85;97031.60;1706539;82;20979;-83
2022/06/14 09:29:25;;;;;;;2.02;1.20;;;;;;;16.52;66.07;97039.48;1720793;82;20920;-83
2022/06/14 09:32:25;;;;;;;2.70;1.40;;;;;;;16.52;64.13;97038.17;1715719;82;20995;-83
2022/06/14 09:35:05;;;;;;;2.85;1.45;;;;;;;16.48;64.54;97036.98;1718418;82;21001;-83
2022/06/14 09:38:14;;;;;;;3.62;1.47;;;;;;;16.51;65.83;97033.44;1719844;82;20971;-83
2022/06/14 09:41:14;;;;;;;2.45;1.25;;;;;;;16.70;64.69;97031.02;1714037;82;21078;-83
2022/06/14 09:44:07;;;;;;;4.33;2.15;;;;;;;16.70;64.07;97031.83;1712148;82;21071;-83
2022/06/14 09:47:21;;;;;;;3.25;1.57;;;;;;;16.71;64.65;97028.70;1702532;82;20998;-83
2022/06/14 09:50:10;;;;;;;4.80;1.30;;;;;;;16.65;64.41;97036.05;1703460;82;21389;-83
2022/06/14 09:53:18;;;;;;;1.42;1.17;;;;;;;16.68;64.49;97038.30;1653670;82;21094;-84
2022/06/14 09:56:04;;;;;;;1.77;0.88;;;;;;;16.62;64.20;97025.47;1722201;82;20988;-83
2022/06/14 09:58:44;;;;;;;2.98;1.00;;;;;;;16.61;62.68;97035.66;1717328;82;21016;-83
2022/06/14 10:01:41;;;;;;;4.15;1.10;;;;;;;16.54;63.07;97041.41;1715826;82;21471;-82
2022/06/14 10:04:29;;;;;;;2.30;1.32;;;;;;;16.47;63.71;97034.86;1718999;82;20991;-84
2022/06/14 10:07:06;;;;;;;4.58;3.22;;;;;;;16.47;64.29;97032.23;1716383;82;21001;-84
2022/06/14 10:09:53;;;;;;;3.02;1.67;;;;;;;16.60;64.77;97039.30;1723185;82;21027;-83
2022/06/14 10:12:42;;;;;;;5.75;4.60;;;;;;;16.64;63.42;97028.69;1725336;82;21043;-83
2022/06/14 10:15:52;;;;;;;3.35;1.80;;;;;;;16.65;63.87;97036.86;1720720;82;20963;-83
2022/06/14 10:18:38;;;;;;;2.10;1.20;;;;;;;16.67;63.13;97029.62;1726492;82;20959;-83
2022/06/14 10:21:23;;;;;;;4.03;2.77;;;;;;;16.65;62.37;97032.92;1721935;82;21349;-83
2022/06/14 10:24:03;;;;;;;4.05;1.95;;;;;;;16.74;63.60;97029.59;1723876;82;20945;-83
2022/06/14 10:30:31;;;;;;;2.52;1.00;;;;;;;16.95;62.11;97029.88;1717140;82;21061;-83
2022/06/14 10:33:11;;;;;;;7.20;3.70;;;;;;;17.01;63.99;97025.91;1715130;82;20931;-83
2022/06/14 10:36:08;;;;;;;4.37;2.15;;;;;;;17.15;62.80;97025.88;1725093;82;21019;-83
2022/06/14 10:39:22;;;;;;;6.92;5.53;;;;;;;17.35;61.88;97014.27;1721262;82;21069;-84
2022/06/14 10:42:09;;;;;;;7.10;3.60;;;;;;;17.49;61.34;97017.66;1680084;84;20968;-83
2022/06/14 10:44:46;;;;;;;2.65;1.30;;;;;;;17.70;61.85;97020.50;1719269;82;21279;-83
2022/06/14 10:48:07;;;;;;;2.90;1.15;;;;;;;17.48;59.39;97017.86;1687473;84;21037;-83
2022/06/14 10:51:08;;;;;;;3.50;1.12;;;;;;;17.29;58.88;97021.69;1727370;82;20963;-83
2022/06/14 10:53:55;;;;;;;1.55;0.80;;;;;;;17.03;58.68;97002.88;1725334;82;20994;-83
2022/06/14 10:56:45;;;;;;;1.85;0.90;;;;;;;17.42;59.86;97010.83;1709559;82;21424;-84
2022/06/14 10:59:34;;;;;;;1.70;0.90;;;;;;;17.54;59.10;97013.87;1725762;82;20971;-83
2022/06/14 11:02:15;;;;;;;1.42;0.70;;;;;;;17.58;60.28;97013.78;1725919;82;20979;-83
2022/06/14 11:04:52;;;;;;;3.92;1.20;;;;;;;17.68;59.45;97008.08;1723925;82;21449;-83
2022/06/14 11:07:47;;;;;;;2.20;0.95;;;;;;;17.82;58.59;97007.50;1724995;82;20939;-83
2022/06/14 11:10:55;;;;;;;2.83;0.90;;;;;;;17.87;58.11;97008.97;1720220;82;21042;-83
2022/06/14 11:14:00;;;;;;;1.17;0.80;;;;;;;17.91;58.56;97006.23;1718910;82;20967;-83
2022/06/14 11:17:03;;;;;;;1.50;0.60;;;;;;;17.99;58.09;97000.20;1713402;82;21041;-83
2022/06/14 11:20:04;;;;;;;1.67;0.80;;;;;;;18.08;57.91;97004.70;1720534;82;20991;-83
2022/06/14 11:22:40;;;;;;;1.60;0.78;;;;;;;18.08;56.42;97006.52;1725820;82;20955;-84
2022/06/14 11:25:44;;;;;;;2.20;0.60;;;;;;;18.08;56.92;97002.58;1721144;82;20998;-83
2022/06/14 11:28:30;;;;;;;2.05;0.70;;;;;;;18.15;56.17;97000.19;1718209;82;20963;-83
2022/06/14 11:31:23;;;;;;;2.42;0.60;;;;;;;18.38;55.45;97004.03;1722347;82;21102;-83
2022/06/14 11:34:06;;;;;;;2.25;0.88;;;;;;;18.56;55.05;96999.64;1719299;82;21022;-83
2022/06/14 11:36:59;;;;;;;2.10;0.70;;;;;;;18.67;55.18;96995.50;1721559;82;21041;-83
2022/06/14 11:40:05;;;;;;;2.47;0.75;;;;;;;18.82;54.36;96992.01;1696989;82;21058;-84
2022/06/14 11:42:45;;;;;;;2.95;0.70;;;;;;;18.96;55.70;96993.99;1721772;82;20981;-83
2022/06/14 11:45:46;;;;;;;2.55;0.80;;;;;;;19.14;55.60;96992.66;1718418;82;20967;-83
2022/06/14 11:48:20;;;;;;;3.10;0.80;;;;;;;19.08;54.28;96991.44;1680569;85;20987;-83
2022/06/14 11:51:25;;;;;;;2.67;0.90;;;;;;;18.92;54.11;97006.00;1718679;82;21038;-83
2022/06/14 11:54:20;;;;;;;2.62;1.00;;;;;;;19.05;52.49;97000.59;1710488;82;21001;-83
2022/06/14 11:57:13;;;;;;;1.60;1.12;;;;;;;18.85;51.06;96991.56;1718267;82;21125;-83
2022/06/14 11:59:53;;;;;;;1.55;0.70;;;;;;;18.55;53.80;96989.34;1718419;82;21073;-82
2022/06/14 12:02:41;;;;;;;1.75;0.93;;;;;;;18.39;54.73;96996.47;1723970;82;20959;-84
2022/06/14 12:05:36;;;;;;;2.17;0.80;;;;;;;18.40;55.17;96998.08;1717034;82;21041;-83
2022/06/14 12:08:16;;;;;;;2.85;1.10;;;;;;;18.41;55.01;96996.55;1723146;82;21113;-83
2022/06/14 12:11:04;;;;;;;3.12;0.90;;;;;;;18.74;54.65;96992.82;1691545;82;21611;-83
2022/06/14 12:13:48;;;;;;;4.30;1.17;;;;;;;18.84;51.76;97002.32;1684740;83;20936;-84
2022/06/14 12:16:40;;;;;;;1.90;0.88;;;;;;;18.45;54.12;96992.96;1684710;85;20996;-83
2022/06/14 12:19:20;;;;;;;3.00;1.10;;;;;;;18.27;54.74;96998.47;1682225;85;21086;-83
2022/06/14 12:22:26;;;;;;;2.83;1.07;;;;;;;18.60;55.10;96988.97;1686061;84;21003;-83
2022/06/14 12:27:35;;;;;;;4.47;0.80;;;;;;;18.77;53.22;96995.81;1674052;85;20980;-83
2022/06/14 12:30:01;;;;;;;2.27;0.72;;;;;;;18.62;53.72;96997.16;1685429;83;20932;-85
2022/06/14 12:32:41;;;;;;;2.00;0.70;;;;;;;18.52;53.88;97003.70;1687231;83;21023;-84
2022/06/14 12:35:17;;;;;;;2.05;0.70;;;;;;;18.42;54.95;96994.20;1680989;83;21023;-83
2022/06/14 12:38:00;;;;;;;3.83;0.80;;;;;;;18.36;54.12;96993.73;1679408;85;21047;-83
2022/06/14 12:40:48;;;;;;;3.15;0.65;;;;;;;18.20;53.60;96987.19;1683099;83;21110;-83
2022/06/14 12:43:22;;;;;;;1.37;0.75;;;;;;;18.08;54.72;96989.44;1682350;83;21361;-83
2022/06/14 12:46:06;;;;;;;2.02;0.85;;;;;;;17.92;53.17;96990.25;1686380;83;20968;-83
2022/06/14 12:48:43;;;;;;;4.35;0.95;;;;;;;18.08;53.34;96988.12;1670785;85;20997;-83
2022/06/14 12:51:30;;;;;;;3.77;1.00;;;;;;;18.32;54.17;96985.98;1683862;85;20984;-83
2022/06/14 12:54:08;;;;;;;3.37;0.98;;;;;;;18.45;56.15;96974.03;1678099;85;21054;-83
2022/06/14 12:57:09;;;;;;;2.45;0.70;;;;;;;18.27;56.89;96981.89;1680799;85;21006;-83
2022/06/14 12:59:58;;;;;;;2.65;0.98;;;;;;;18.13;56.67;96986.45;1670393;83;21028;-84
2022/06/14 13:02:41;;;;;;;2.40;0.95;;;;;;;17.98;56.03;96989.89;1680503;83;21007;-83
2022/06/14 13:05:18;;;;;;;3.10;0.85;;;;;;;18.13;55.04;96987.77;1678772;85;21047;-84
2022/06/14 13:08:05;;;;;;;2.17;0.85;;;;;;;18.27;55.31;96987.95;1677416;85;21051;-84